Chicago O'Hare International Airport
KORD : now visible

Aeroporto :











RITROVATECI SU...

 
LOGIN :

Iscrizione | Disclaimer

   EN    FR    IT 

 









Sommario :    VFR   VFR Marginale   IFR   IFR Intensivo   IFR Molto Intensivo
Visibilità : 
Base nubi : 
>= 8 km
>= 3000ft
5 / 8 km
1000 / 3000 ft
1500m / 5 km
500 / 1000 ft
800 / 1500m
200 / 500 ft
< 800m
< 200 ft
Simboli :   Temporali  Nebbia  Neve Forte  Precipitazioni Forti  Vento > 20 kt






- Altitudine del aeroporto : 672 ft
- Codice IATA : ORD


KORD - Chicago O'Hare International

ULTIMO METAR :
  • 130751Z 00000KT 10SM CLR 19/16 A2994 RMK AO2 SLP135 T01940156

METARs OBSOLETI :
  • 130651Z 33004KT 10SM CLR 19/16 A2995 RMK AO2 SLP137 T01940156
  • 130551Z 00000KT 10SM CLR 20/16 A2995 RMK AO2 SLP137 T02000161 10233 20200 402610200 50004

TAF KORD
Valido dal 13 a 06 ore il 14 a 12 ore UTC


130520Z 1306/1412 35004KT P6SM FEW250
FM131500 03007KT P6SM SCT045
FM131900 08010KT P6SM BKN050
FM140200 13004KT P6SM FEW050
FIR KZAU / America del Nord



MetMap, La meteo Aeronautica in un colpo d'occhio ! - Copyright ORBIFLY Dicembre 2007 - Disclaimer

ORBIFLY MET'MAP TEAM :

Programmazione e sviluppo : Alexandra Zaïnal
Concezione : Baudouin d'Aumeries
Aiuto per la programmazione : Marc-Olivier Méhu
Supporto tecnico e logistico : Manuel Goepfert
Aiuto per la traduzione : Arnaldo La Scala

Contatto : metmap@orbifly.com




FONTI E CREDITI :

   NOAA       Earth
Advisory